Aeroporto :







RITROVATECI SU...

 
LOGIN :

Iscrizione | Disclaimer

   EN    FR    IT 

 









Sommario :    VFR   VFR Marginale   IFR   IFR Intensivo   IFR Molto Intensivo
Visibilità : 
Base nubi : 
>= 8 km
>= 3000ft
5 / 8 km
1000 / 3000 ft
1500m / 5 km
500 / 1000 ft
800 / 1500m
200 / 500 ft
< 800m
< 200 ft
Simboli :   Temporali  Nebbia  Neve Forte  Precipitazioni Forti  Vento > 20 kt






- Altitudine del aeroporto : 54 ft
- Codice IATA : BEL


SBBE - Val de Cans Int.

ULTIMO METAR :
  • 011900Z 01016KT 3000 -TSRA SCT004 BKN012 FEW020CB BKN070 25/24 Q1011 RETSRA

METARs OBSOLETI :
  • 011845Z 05012KT 0800 R06/1500D +TSRA BKN010 FEW037CB BKN070 25/24 Q1011 RETSRA
  • 011840Z 09011G22KT 2000 TSRA BKN011 FEW022CB BKN070 26/24 Q1011
  • 011835Z 33004KT 4000 -RA BKN017 FEW022TCU BKN070 28/25 Q1010
  • 011800Z 06006KT 9999 SCT030 FEW050TCU BKN100 30/25 Q1010
  • 011700Z 13006KT 9999 SCT030 FEW040TCU SCT100 31/23 Q1011

TAF TAF SBBE
Valido dal 01 a 18 ore il 02 a 18 ore UTC


011500Z 0118/0218 08005KT 8000 BKN025 FEW030TCU TN24/0207Z TX30/0215Z
TEMPO 0119/0122 4000 TSRA SCT009 BKN025 FEW035CB
BECMG 0200/0202 9999 SCT025
BECMG 0213/0215 BKN025 FEW030TCU RMK PDU
FIR SBAZ / Sudamerica



MetMap, La meteo Aeronautica in un colpo d'occhio ! - Copyright ORBIFLY Dicembre 2007 - Disclaimer

ORBIFLY MET'MAP TEAM :

Programmazione e sviluppo : Alexandra Zaïnal
Concezione : Baudouin d'Aumeries
Aiuto per la programmazione : Marc-Olivier Méhu
Supporto tecnico e logistico : Manuel Goepfert
Aiuto per la traduzione : Arnaldo La Scala

Contatto : metmap@orbifly.com




FONTI E CREDITI :

   NOAA